F/V Carmalia — FMFK — position and weather

sailwx.info

Track history (hours):
 
Tides and Currents Weather Stations Pressure Air Temp Water Temp Dewpoint Dewpoint Depression Visibility Wind Speed Wind Dir Waves Ship Positions

F/V Carmalia

Last reported at 2015-May-25 15:33 UTC. Time now 2015-May-25 15:39 UTC.
Position N 47°44' W 003°22'.

Length 17 m.

Type: Fishing. MMSI: 228222900.

Date/timePositionNaut miles runAvg speedWind from/ knotsBaromVisibWave heightAir tempDewpointWater temp
2015-May-25 15:33N 47°44' W 003°22'0 0.0
2015-May-25 14:33N 47°44' W 003°22'0 0.0
2015-May-25 13:33N 47°44' W 003°22'2 1.8
2015-May-25 12:33N 47°42' W 003°22'9 9.0
2015-May-25 11:33N 47°37' W 003°34'10 9.6
2015-May-25 10:33N 47°30' W 003°43'23 9.4
2015-May-25 08:06N 47°12' W 004°04'5 9.1
2015-May-25 07:33N 47°08' W 004°08'9 9.2
2015-May-25 06:33N 47°01' W 004°17'7 6.1
2015-May-25 05:26N 46°55' W 004°23'52 1.0
2015-May-23 02:30N 47°29' W 003°24'9 9.5
2015-May-23 01:33N 47°38' W 003°23'6 5.8
2015-May-23 00:33N 47°44' W 003°22'0 0.0
2015-May-22 23:33N 47°44' W 003°22'0 0.0
2015-May-22 22:33N 47°44' W 003°22'0 0.2
2015-May-22 21:33N 47°44' W 003°22'8 8.6
2015-May-22 20:33N 47°39' W 003°33'  
2015-May-19 18:33N 47°43' W 003°43'6 6.2
2015-May-19 17:33N 47°42' W 003°34'6 5.8
2015-May-19 16:33N 47°41' W 003°26'4 3.7
2015-May-19 15:33N 47°44' W 003°22'0 0.0
2015-May-19 14:33N 47°44' W 003°22'0 0.0
2015-May-19 13:33N 47°44' W 003°22'0 0.0
2015-May-19 12:33N 47°44' W 003°22'0 0.0
2015-May-18 08:27N 47°44' W 003°22'0 0.0
2015-May-18 07:33N 47°44' W 003°22'  
Track history (hours):
 
Tides and Currents Weather Stations Pressure Air Temp Water Temp Dewpoint Dewpoint Depression Visibility Wind Speed Wind Dir Waves Ship Positions

F/V Carmalia

Last reported at 2015-May-25 15:33 UTC. Time now 2015-May-25 15:39 UTC.
Position N 47°44' W 003°22'.

Length 17 m.

Type: Fishing. MMSI: 228222900.

Date/timePositionNaut miles runAvg speedWind from/ knotsBaromVisibWave heightAir tempDewpointWater temp
2015-May-25 15:33N 47°44' W 003°22'0 0.0
2015-May-25 14:33N 47°44' W 003°22'0 0.0
2015-May-25 13:33N 47°44' W 003°22'2 1.8
2015-May-25 12:33N 47°42' W 003°22'9 9.0
2015-May-25 11:33N 47°37' W 003°34'10 9.6
2015-May-25 10:33N 47°30' W 003°43'23 9.4
2015-May-25 08:06N 47°12' W 004°04'5 9.1
2015-May-25 07:33N 47°08' W 004°08'9 9.2
2015-May-25 06:33N 47°01' W 004°17'7 6.1
2015-May-25 05:26N 46°55' W 004°23'52 1.0
2015-May-23 02:30N 47°29' W 003°24'9 9.5
2015-May-23 01:33N 47°38' W 003°23'6 5.8
2015-May-23 00:33N 47°44' W 003°22'0 0.0
2015-May-22 23:33N 47°44' W 003°22'0 0.0
2015-May-22 22:33N 47°44' W 003°22'0 0.2
2015-May-22 21:33N 47°44' W 003°22'8 8.6
2015-May-22 20:33N 47°39' W 003°33'  
2015-May-19 18:33N 47°43' W 003°43'6 6.2
2015-May-19 17:33N 47°42' W 003°34'6 5.8
2015-May-19 16:33N 47°41' W 003°26'4 3.7
2015-May-19 15:33N 47°44' W 003°22'0 0.0
2015-May-19 14:33N 47°44' W 003°22'0 0.0
2015-May-19 13:33N 47°44' W 003°22'0 0.0
2015-May-19 12:33N 47°44' W 003°22'0 0.0
2015-May-18 08:27N 47°44' W 003°22'0 0.0
2015-May-18 07:33N 47°44' W 003°22'  

Dump ship's entire track history